Terminal Aerodrome Forecast
Issued by NWS Wilmington, NC

Home | Current Version | Previous Version | Text Only | Print | Product List | Glossary On
Versions: 1 2 3 4 5 6 7 8 9 10 11 12 13 14 15 16 17 18 19
821
FTUS42 KILM 271120
TAFMYR
TAF
KMYR 271120Z 2712/2812 13010KT P6SM VCSH SCT020 SCT035 BKN120
     FM271400 09005KT P6SM SCT025 SCT040 BKN120
     FM280100 14004KT P6SM BKN015=

USA.gov is the U.S. government's official web portal to all federal, state and local government web resources and services.